^^
Saratoga-Weather Station Historical Data
Daily Summary for August 13, 2019 Units:  English    Metric   Both
Daily Weekly Monthly Yearly
  High: Low: Average:
Temperature: 83.8 °F 66.7 °F 75.2 °F
Dew Point: 68.7 °F 63.3 °F 66 °F
Humidity: 91.4% 53.8% 75%
Wind Speed: 10.3mph 0mph 5.5mph
Wind Gust: 13mph - -
Wind- - WSW
Pressure: 29.8 in 29.7 in -
Precipitation: 0 in    
 
 
Tabular Data for August 13, 2019
Time Temperature Dew Point Pressure Wind Wind Speed Wind Gust Humidity Rainfall Rate (Hourly) solar
00:04 71.6 °F 68.5 °F 29.8 in SW 3 mph 4 mph 90% 0 in 0 W/m2
00:09 71.4 °F 68.4 °F 29.8 in SW 3.7 mph 3.9 mph 90% 0 in 0 W/m2
00:14 71.4 °F 68.2 °F 29.8 in SW 3.4 mph 5 mph 90% 0 in 0 W/m2
00:19 71.2 °F 68.2 °F 29.8 in SW 4.2 mph 4 mph 90% 0 in 0 W/m2
00:23 71.2 °F 68.2 °F 29.8 in SW 3.7 mph 6 mph 90% 0 in 0 W/m2
00:29 71.1 °F 67.8 °F 29.8 in SSW 3.5 mph 2 mph 90% 0 in 0 W/m2
00:34 71.1 °F 67.8 °F 29.8 in SSW 3.4 mph 5 mph 90% 0 in 0 W/m2
00:39 70.9 °F 67.8 °F 29.8 in SSW 3.4 mph 4 mph 90% 0 in 0 W/m2
00:44 70.9 °F 67.6 °F 29.8 in SSW 3.4 mph 4 mph 90% 0 in 0 W/m2
00:49 70.9 °F 67.6 °F 29.8 in SSW 1.6 mph 3 mph 90% 0 in 0 W/m2
00:54 70.9 °F 67.6 °F 29.8 in SSW 0.6 mph 2 mph 90% 0 in 0 W/m2
00:59 70.7 °F 67.6 °F 29.8 in SSW 1.9 mph 1.1 mph 90% 0 in 0 W/m2
01:04 70.7 °F 67.6 °F 29.8 in SSW 1.6 mph 2 mph 90% 0 in 0 W/m2
01:09 70.7 °F 67.5 °F 29.8 in SSW 2 mph 2 mph 90% 0 in 0 W/m2
01:14 70.5 °F 67.5 °F 29.8 in Calm   3 mph 90% 0 in 0 W/m2
01:19 70.5 °F 67.5 °F 29.8 in Calm     90% 0 in 0 W/m2
01:24 70.5 °F 67.5 °F 29.8 in SSW 1.5 mph 1.2 mph 90% 0 in 0 W/m2
01:29 70.5 °F 67.5 °F 29.8 in SSW 1.9 mph 2 mph 89.6% 0 in 0 W/m2
01:34 70.5 °F 67.5 °F 29.8 in SSW 3.1 mph 3 mph 89.6% 0 in 0 W/m2
01:39 70.5 °F 67.3 °F 29.8 in SSW 2.4 mph 4 mph 89% 0 in 0 W/m2
01:44 70.5 °F 67.1 °F 29.8 in SSW 0.7 mph 2 mph 89% 0 in 0 W/m2
01:49 70.5 °F 67.1 °F 29.8 in Calm   1 mph 89% 0 in 0 W/m2
01:54 70.5 °F 67.1 °F 29.8 in Calm     89% 0 in 0 W/m2
01:59 70.5 °F 67.3 °F 29.8 in SW 1.1 mph 2.4 mph 89.3% 0 in 0 W/m2
02:03 70.7 °F 67.6 °F 29.8 in West 2.7 mph 4 mph 90% 0 in 0 W/m2
02:09 70.7 °F 67.6 °F 29.8 in West 2.3 mph 4 mph 90% 0 in 0 W/m2
02:14 70.9 °F 67.6 °F 29.8 in West 1.9 mph 2 mph 90% 0 in 0 W/m2
02:19 70.9 °F 67.6 °F 29.8 in WSW 3.8 mph 3.5 mph 89.7% 0 in 0 W/m2
02:24 70.9 °F 67.5 °F 29.8 in WSW 3 mph 6 mph 89% 0 in 0 W/m2
02:29 70.9 °F 67.5 °F 29.8 in WSW 3.2 mph 4 mph 89% 0 in 0 W/m2
02:34 70.9 °F 67.6 °F 29.8 in West 4 mph 4 mph 89% 0 in 0 W/m2
02:39 71.1 °F 67.6 °F 29.8 in West 4.2 mph 5 mph 89% 0 in 0 W/m2
02:44 71.1 °F 68 °F 29.8 in West 3.2 mph 6 mph 89.7% 0 in 0 W/m2
02:49 71.2 °F 68.2 °F 29.8 in WNW 4.2 mph 5 mph 90% 0 in 0 W/m2
02:54 71.2 °F 68.2 °F 29.8 in West 4 mph 6 mph 90% 0 in 0 W/m2
02:59 71.4 °F 68.2 °F 29.8 in West 5 mph 7 mph 89.4% 0 in 0 W/m2
03:04 71.4 °F 68 °F 29.8 in West 3.6 mph 6 mph 89% 0 in 0 W/m2
03:09 71.4 °F 68.2 °F 29.8 in West 3.6 mph 4 mph 89% 0 in 0 W/m2
03:14 71.6 °F 68.2 °F 29.8 in West 3.4 mph 5 mph 89% 0 in 0 W/m2
03:19 71.8 °F 68.4 °F 29.8 in West 3 mph 4 mph 89% 0 in 0 W/m2
03:24 71.8 °F 68.4 °F 29.8 in West 2.9 mph 3 mph 89% 0 in 0 W/m2
03:29 71.8 °F 68.5 °F 29.8 in WSW 3.5 mph 4 mph 89% 0 in 0 W/m2
03:34 71.8 °F 68.4 °F 29.8 in WSW 3.5 mph 4 mph 89% 0 in 0 W/m2
03:39 71.8 °F 68.4 °F 29.8 in WSW 0.2 mph 4 mph 89% 0 in 0 W/m2
03:44 71.6 °F 68.4 °F 29.8 in Calm     89% 0 in 0 W/m2
03:49 71.6 °F 68.4 °F 29.8 in Calm     89.3% 0 in 0 W/m2
03:54 71.6 °F 68.4 °F 29.8 in Calm     90% 0 in 0 W/m2
03:59 71.4 °F 68.4 °F 29.8 in Calm     90% 0 in 0 W/m2
04:04 71.4 °F 68.4 °F 29.8 in WSW 1.4 mph 2.1 mph 90% 0 in 0 W/m2
04:09 71.4 °F 68.2 °F 29.8 in WSW 3.7 mph 4 mph 90% 0 in 0 W/m2
04:14 71.2 °F 68.4 °F 29.8 in WSW 3.2 mph 5 mph 90.5% 0 in 0 W/m2
04:19 71.2 °F 68.4 °F 29.8 in WSW 3.2 mph 4 mph 91% 0 in 0 W/m2
04:24 71.2 °F 68.4 °F 29.8 in WSW 3.7 mph 3.5 mph 91% 0 in 0 W/m2
04:29 71.1 °F 68.2 °F 29.8 in WSW 3.9 mph 5 mph 91% 0 in 0 W/m2
04:34 70.9 °F 68.2 °F 29.8 in WSW 4.4 mph 6 mph 91% 0 in 0 W/m2
04:39 70.9 °F 68 °F 29.8 in WSW 5.7 mph 7.8 mph 91% 0 in 0 W/m2
04:44 70.5 °F 67.8 °F 29.8 in WSW 9 mph 10 mph 91% 0 in 0 W/m2
04:49 70.3 °F 67.5 °F 29.8 in WSW 7.7 mph 9 mph 91% 0 in 0 W/m2
04:54 70 °F 67.3 °F 29.8 in WSW 7.8 mph 9 mph 91% 0 in 0 W/m2
04:59 69.6 °F 66.9 °F 29.8 in WSW 7.4 mph 9 mph 91% 0 in 0 W/m2
05:04 69.3 °F 66.4 °F 29.8 in WSW 9.4 mph 8.4 mph 90.7% 0 in 0 W/m2
05:09 68.9 °F 65.8 °F 29.8 in SW 9.3 mph 13 mph 90% 0 in 0 W/m2
05:14 68.7 °F 65.7 °F 29.8 in SW 8.3 mph 13 mph 90% 0 in 0 W/m2
05:19 68.5 °F 65.5 °F 29.8 in WSW 6.2 mph 9 mph 90% 0 in 0 W/m2
05:24 68.5 °F 65.5 °F 29.8 in SW 5.7 mph 8 mph 90% 0 in 0 W/m2
05:29 68.4 °F 65.5 °F 29.8 in SW 6.3 mph 7 mph 90% 0 in 0 W/m2
05:34 68.4 °F 65.3 °F 29.8 in WSW 6.6 mph 8 mph 90% 0 in 0 W/m2
05:39 68.2 °F 65.1 °F 29.8 in WSW 7.5 mph 7 mph 90% 0 in 0 W/m2
05:44 68 °F 65.1 °F 29.8 in WSW 6.8 mph 9 mph 90% 0 in 0 W/m2
05:49 68 °F 65.1 °F 29.8 in WSW 8 mph 8 mph 90.5% 0 in 0 W/m2
05:54 67.8 °F 65.1 °F 29.8 in SW 7.9 mph 10 mph 91% 0 in 0 W/m2
05:59 67.8 °F 65.1 °F 29.8 in WSW 7.8 mph 9 mph 91% 0 in 0 W/m2
06:04 67.6 °F 64.9 °F 29.8 in WSW 8.3 mph 10 mph 91% 0 in 0 W/m2
06:09 67.5 °F 64.8 °F 29.8 in WSW 6.8 mph 9 mph 91% 0 in 0 W/m2
06:14 67.5 °F 64.8 °F 29.8 in WSW 8.7 mph 8 mph 91% 0 in 0 W/m2
06:19 67.3 °F 64.6 °F 29.8 in WSW 6.3 mph 12 mph 91% 0 in 0 W/m2
06:24 67.1 °F 64.4 °F 29.8 in WSW 5.3 mph 6 mph 91% 0 in 0 W/m2
06:29 67.1 °F 64.4 °F 29.8 in WSW 6 mph 7 mph 91% 0 in 7 W/m2
06:34 66.9 °F 64.2 °F 29.8 in WSW 5.8 mph 8 mph 91% 0 in 11 W/m2
06:39 66.9 °F 64.4 °F 29.8 in WSW 5.8 mph 7 mph 91.4% 0 in 14 W/m2
06:44 66.7 °F 64 °F 29.8 in WSW 4.5 mph 6 mph 91% 0 in 18 W/m2
06:49 66.7 °F 64 °F 29.8 in WSW 5 mph 5 mph 91% 0 in 21 W/m2
06:54 66.7 °F 64 °F 29.8 in WSW 5.3 mph 7 mph 91% 0 in 25 W/m2
06:59 66.7 °F 64 °F 29.8 in WSW 5.7 mph 6 mph 91% 0 in 33 W/m2
07:04 66.7 °F 64 °F 29.8 in WSW 5.2 mph 6 mph 91% 0 in 40 W/m2
07:09 66.7 °F 64 °F 29.8 in WSW 5.7 mph 7 mph 91% 0 in 40 W/m2
07:14 66.7 °F 64 °F 29.8 in WSW 5.5 mph 7 mph 91% 0 in 49 W/m2
07:19 66.7 °F 64 °F 29.8 in WSW 5.7 mph 6 mph 91% 0 in 67 W/m2
07:24 66.7 °F 64 °F 29.8 in WSW 6.1 mph 9 mph 91% 0 in 72 W/m2
07:29 66.7 °F 64 °F 29.8 in WSW 5 mph 9 mph 91% 0 in 79 W/m2
07:34 66.9 °F 64.2 °F 29.8 in WSW 4.9 mph 5 mph 91% 0 in 105 W/m2
07:39 66.9 °F 64.2 °F 29.8 in SW 6.4 mph 6.5 mph 91% 0 in 118 W/m2
07:44 66.9 °F 64.2 °F 29.8 in WSW 5.6 mph 8 mph 91% 0 in 132 W/m2
07:49 67.1 °F 64.4 °F 29.8 in WSW 7.6 mph 7 mph 91% 0 in 146 W/m2
07:54 67.3 °F 64.6 °F 29.8 in WSW 5.8 mph 9 mph 91% 0 in 156 W/m2
07:59 67.5 °F 64.6 °F 29.8 in SW 7.2 mph 7 mph 90.4% 0 in 172 W/m2
08:04 67.5 °F 64.4 °F 29.8 in WSW 8.3 mph 9 mph 90% 0 in 183 W/m2
08:09 67.6 °F 64.6 °F 29.8 in SW 7.7 mph 10 mph 90% 0 in 188 W/m2
08:14 67.6 °F 64.4 °F 29.8 in WSW 7.1 mph 9 mph 89.4% 0 in 192 W/m2
08:19 67.8 °F 64.4 °F 29.8 in WSW 5.2 mph 8 mph 89% 0 in 195 W/m2
08:24 68 °F 64.6 °F 29.8 in SW 4.8 mph 6 mph 89% 0 in 206 W/m2
08:29 68.2 °F 64.8 °F 29.8 in WSW 6.3 mph 7 mph 88.7% 0 in 207 W/m2
08:34 68.5 °F 64.8 °F 29.8 in WSW 6 mph 8 mph 88% 0 in 200 W/m2
08:39 68.5 °F 64.9 °F 29.8 in West 5.3 mph 7 mph 87.8% 0 in 199 W/m2
08:44 68.9 °F 65.1 °F 29.8 in WSW 5 mph 6 mph 87.7% 0 in 230 W/m2
08:49 69.1 °F 64.9 °F 29.8 in WSW 6.3 mph 7 mph 86.4% 0 in 272 W/m2
08:54 69.6 °F 65.1 °F 29.8 in West 5.5 mph 7 mph 85.8% 0 in 297 W/m2
08:59 69.6 °F 64.9 °F 29.8 in WSW 6.3 mph 7 mph 85% 0 in 327 W/m2
09:04 70 °F 65.1 °F 29.8 in WSW 5.3 mph 8 mph 85% 0 in 348 W/m2
09:09 70.2 °F 65.3 °F 29.8 in West 6 mph 6 mph 84.4% 0 in 371 W/m2
09:14 70.3 °F 64.9 °F 29.8 in WSW 7.9 mph 9 mph 83.2% 0 in 387 W/m2
09:19 70.3 °F 64.9 °F 29.8 in WSW 7.2 mph 9 mph 83% 0 in 401 W/m2
09:24 70.5 °F 64.9 °F 29.8 in West 7.3 mph 8 mph 82.5% 0 in 413 W/m2
09:29 70.9 °F 64.9 °F 29.8 in West 6.9 mph 9 mph 81.5% 0 in 427 W/m2
09:34 71.2 °F 65.1 °F 29.8 in West 6.8 mph 9 mph 81% 0 in 448 W/m2
09:38 71.4 °F 65.1 °F 29.8 in West 5.7 mph 8 mph 80.4% 0 in 454 W/m2
09:44 72 °F 65.3 °F 29.8 in West 6.4 mph 7 mph 79.6% 0 in 469 W/m2
09:49 72.1 °F 64.9 °F 29.8 in West 8 mph 10 mph 77.8% 0 in 482 W/m2
09:54 72.5 °F 65.1 °F 29.8 in West 6.8 mph 9 mph 78% 0 in 494 W/m2
09:59 72.9 °F 65.3 °F 29.8 in WSW 9.3 mph 9 mph 77% 0 in 506 W/m2
10:04 73 °F 64.9 °F 29.8 in WSW 10.3 mph 12 mph 75.7% 0 in 515 W/m2
10:09 73.2 °F 64.9 °F 29.8 in SW 8.1 mph 12 mph 75.5% 0 in 533 W/m2
10:14 73.4 °F 65.1 °F 29.8 in WSW 6.5 mph 9 mph 75.2% 0 in 543 W/m2
10:19 73.8 °F 65.1 °F 29.8 in WSW 7.2 mph 8 mph 74.3% 0 in 557 W/m2
10:24 73.9 °F 64.9 °F 29.8 in SW 9 mph 9 mph 73.3% 0 in 568 W/m2
10:29 74.1 °F 64.8 °F 29.8 in WSW 7.9 mph 10 mph 72.8% 0 in 575 W/m2
10:34 74.5 °F 65.3 °F 29.8 in SW 9.3 mph 8 mph 73.3% 0 in 589 W/m2
10:39 74.7 °F 65.3 °F 29.8 in WSW 9.2 mph 12 mph 72.3% 0 in 603 W/m2
10:44 74.8 °F 65.1 °F 29.8 in WSW 9.8 mph 10 mph 71.4% 0 in 606 W/m2
10:49 75.2 °F 65.1 °F 29.8 in SW 9.8 mph 13 mph 71.1% 0 in 606 W/m2
10:54 75.6 °F 65.1 °F 29.8 in SW 9.4 mph 12 mph 70% 0 in 608 W/m2
10:59 75.6 °F 64.9 °F 29.8 in West 9.3 mph 10 mph 69.4% 0 in 606 W/m2
11:04 75.7 °F 65.1 °F 29.8 in West 8.4 mph 12 mph 69.4% 0 in 594 W/m2
11:09 76.1 °F 65.1 °F 29.8 in West 6.5 mph 12 mph 68.8% 0 in 584 W/m2
11:14 76.3 °F 65.1 °F 29.8 in West 6.6 mph 8 mph 68.4% 0 in 570 W/m2
11:19 76.5 °F 65.3 °F 29.8 in West 6.4 mph 8 mph 68.5% 0 in 561 W/m2
11:24 76.8 °F 65.5 °F 29.8 in West 5.2 mph 7 mph 68% 0 in 566 W/m2
11:29 76.8 °F 65.5 °F 29.8 in West 5.9 mph 6 mph 68% 0 in 566 W/m2
11:34 76.6 °F 65.5 °F 29.8 in WSW 4.8 mph 8 mph 68.3% 0 in 598 W/m2
11:39 77.4 °F 66 °F 29.8 in WSW 4.7 mph 7 mph 68.1% 0 in 598 W/m2
11:44 78.1 °F 66.2 °F 29.8 in WNW 5.4 mph 6 mph 67.2% 0 in 608 W/m2
11:49 77.7 °F 66 °F 29.8 in WNW 4.8 mph 7 mph 67.2% 0 in 684 W/m2
11:54 77.5 °F 65.8 °F 29.8 in WNW 5 mph 6 mph 67.2% 0 in 726 W/m2
11:59 77.7 °F 66 °F 29.8 in WSW 5.2 mph 6 mph 67% 0 in 737 W/m2
12:04 77.9 °F 65.7 °F 29.8 in West 4.8 mph 6 mph 66.2% 0 in 772 W/m2
12:09 77.9 °F 65.8 °F 29.8 in West 4.8 mph 5 mph 66.3% 0 in 779 W/m2
12:14 78.1 °F 66 °F 29.8 in NW 6.2 mph 6.3 mph 66.3% 0 in 788 W/m2
12:19 78.8 °F 66 °F 29.8 in WSW 5.6 mph 8 mph 65.2% 0 in 807 W/m2
12:24 79 °F 65.3 °F 29.8 in West 5.8 mph 8 mph 63.2% 0 in 805 W/m2
12:29 78.8 °F 65.5 °F 29.8 in West 6 mph 8 mph 63.8% 0 in 807 W/m2
12:34 79.3 °F 65.7 °F 29.8 in WSW 5 mph 6 mph 63% 0 in 809 W/m2
12:39 79.7 °F 66 °F 29.8 in WSW 5.7 mph 8 mph 62.8% 0 in 823 W/m2
12:44 80.1 °F 66.4 °F 29.8 in West 5.8 mph 8 mph 63% 0 in 817 W/m2
12:49 80.2 °F 66.6 °F 29.8 in West 4.7 mph 7 mph 63.1% 0 in 788 W/m2
12:54 80.4 °F 66.7 °F 29.8 in West 5.1 mph 5.2 mph 63.3% 0 in 867 W/m2
12:58 80.6 °F 66.9 °F 29.8 in WSW 5.4 mph 8 mph 63.4% 0 in 867 W/m2
13:04 81 °F 67.1 °F 29.8 in WSW 5 mph 6 mph 62.9% 0 in 856 W/m2
13:09 81.1 °F 66.7 °F 29.8 in West 4.5 mph 8 mph 61.7% 0 in 842 W/m2
13:13 80.8 °F 66.6 °F 29.8 in NW 4.3 mph 6 mph 62% 0 in 846 W/m2
13:19 81 °F 66.2 °F 29.8 in West 5.4 mph 7.1 mph 60.7% 0 in 851 W/m2
13:24 81.5 °F 66.2 °F 29.8 in NW 4.9 mph 8 mph 59.7% 0 in 854 W/m2
13:29 81.1 °F 66.4 °F 29.8 in WNW 5 mph 6 mph 60.7% 0 in 821 W/m2
13:34 81.5 °F 66 °F 29.8 in WSW 6.6 mph 7.3 mph 59.6% 0 in 749 W/m2
13:39 81.7 °F 65.7 °F 29.8 in NW 6.2 mph 9 mph 58.4% 0 in 712 W/m2
13:44 81.3 °F 66.2 °F 29.8 in NW 3.4 mph 8 mph 60.2% 0 in 647 W/m2
13:49 81.7 °F 66.7 °F 29.8 in SW 4.1 mph 5 mph 60.8% 0 in 731 W/m2
13:54 82.4 °F 66.7 °F 29.8 in West 6.6 mph 7 mph 59.3% 0 in 833 W/m2
13:59 82.2 °F 67.3 °F 29.8 in WNW 5.7 mph 8 mph 60.7% 0 in 851 W/m2
14:04 82.2 °F 67.8 °F 29.8 in WNW 5.2 mph 8 mph 61.8% 0 in 870 W/m2
14:09 82.6 °F 68.2 °F 29.8 in NNW 5.3 mph 6 mph 62.2% 0 in 821 W/m2
14:14 82.2 °F 68 °F 29.8 in NNW 4.6 mph 7 mph 62.1% 0 in 838 W/m2
14:19 82.2 °F 67.8 °F 29.8 in NE 3.9 mph 6 mph 61.8% 0 in 780 W/m2
14:24 82.9 °F 67.8 °F 29.8 in South 3.6 mph 6 mph 60.7% 0 in 826 W/m2
14:29 83.7 °F 68.2 °F 29.8 in SE 2.7 mph 5 mph 60% 0 in 501 W/m2
14:34 83.8 °F 68.2 °F 29.8 in SW 3.6 mph 3.7 mph 59.7% 0 in 411 W/m2
14:39 83.7 °F 68.5 °F 29.8 in SW 5.2 mph 5 mph 60.7% 0 in 603 W/m2
14:44 83.7 °F 68.7 °F 29.8 in WSW 4.9 mph 8 mph 61.2% 0 in 548 W/m2
14:49 83.3 °F 68.4 °F 29.8 in SW 5 mph 7 mph 60.8% 0 in 561 W/m2
14:54 83.5 °F 68.5 °F 29.8 in West 4.7 mph 6 mph 61.2% 0 in 568 W/m2
14:59 83.3 °F 68.4 °F 29.8 in WSW 5.3 mph 6 mph 61% 0 in 548 W/m2
15:04 82.9 °F 68.4 °F 29.8 in SSW 4.8 mph 6 mph 61.5% 0 in 476 W/m2
15:09 83.1 °F 68.4 °F 29.8 in SSW 3.7 mph 6 mph 61.3% 0 in 571 W/m2
15:14 83.3 °F 68.4 °F 29.8 in WSW 6.2 mph 6 mph 61% 0 in 592 W/m2
15:19 83.5 °F 68.4 °F 29.8 in WSW 5.5 mph 8 mph 60.6% 0 in 550 W/m2
15:24 83.5 °F 68 °F 29.8 in SW 7 mph 7 mph 59.4% 0 in 642 W/m2
15:29 83.5 °F 67.6 °F 29.8 in SSW 5.7 mph 9 mph 59% 0 in 642 W/m2
15:34 83.5 °F 67.6 °F 29.8 in SW 8 mph 6.9 mph 59% 0 in 629 W/m2
15:39 83.3 °F 67.6 °F 29.8 in SW 5.6 mph 10 mph 59.3% 0 in 346 W/m2
15:44 83.3 °F 67.6 °F 29.8 in WSW 5.1 mph 7 mph 59.2% 0 in 381 W/m2
15:48 83.3 °F 67.1 °F 29.8 in WSW 6.2 mph 8 mph 58% 0 in 325 W/m2
15:54 83.3 °F 67.1 °F 29.8 in SW 3.2 mph 8 mph 58.2% 0 in 677 W/m2
15:59 83.3 °F 67.1 °F 29.8 in SSW 7.2 mph 8 mph 58.1% 0 in 677 W/m2
16:04 83.1 °F 66.9 °F 29.8 in South 5.8 mph 9 mph 58.2% 0 in 606 W/m2
16:09 83.7 °F 67.1 °F 29.8 in South 5.4 mph 7 mph 57.6% 0 in 517 W/m2
16:14 83.7 °F 66.9 °F 29.8 in SW 6.2 mph 7 mph 57.1% 0 in 441 W/m2
16:19 83.5 °F 66.7 °F 29.8 in SSW 7.7 mph 8 mph 57% 0 in 432 W/m2
16:24 83.3 °F 66.7 °F 29.8 in South 5.8 mph 9 mph 57.4% 0 in 369 W/m2
16:29 83.5 °F 66.9 °F 29.8 in SW 6.5 mph 7 mph 57.7% 0 in 295 W/m2
16:34 83.5 °F 66.7 °F 29.8 in West 6.3 mph 9 mph 57% 0 in 362 W/m2
16:39 83.5 °F 66.6 °F 29.8 in WSW 6.5 mph 7 mph 56.8% 0 in 425 W/m2
16:44 83.5 °F 66.2 °F 29.8 in WSW 8.1 mph 8.1 mph 56.2% 0 in 527 W/m2
16:49 83.5 °F 66.2 °F 29.8 in WSW 9.9 mph 10 mph 56% 0 in 617 W/m2
16:54 83.5 °F 65.8 °F 29.8 in WSW 8.6 mph 12 mph 55.4% 0 in 457 W/m2
16:59 83.3 °F 66 °F 29.8 in West 8 mph 12 mph 56% 0 in 401 W/m2
17:04 83.1 °F 65.5 °F 29.8 in WNW 8.8 mph 10 mph 55.4% 0 in 508 W/m2
17:09 82.9 °F 64.6 °F 29.8 in West 9.5 mph 12 mph 53.8% 0 in 397 W/m2
17:14 82.9 °F 64.6 °F 29.8 in West 8.9 mph 12 mph 54.2% 0 in 461 W/m2
17:19 82.8 °F 65.3 °F 29.8 in WSW 8.1 mph 12 mph 55.5% 0 in 285 W/m2
17:24 82.8 °F 65.3 °F 29.8 in WSW 7.8 mph 10 mph 55.5% 0 in 276 W/m2
17:29 82.6 °F 64.8 °F 29.8 in WSW 9.3 mph 10 mph 55% 0 in 287 W/m2
17:34 82.2 °F 64.4 °F 29.8 in West 8 mph 12 mph 55% 0 in 243 W/m2
17:39 82 °F 64.2 °F 29.8 in WSW 7.6 mph 10 mph 55% 0 in 230 W/m2
17:44 81.9 °F 64.2 °F 29.8 in West 7.5 mph 9 mph 55% 0 in 227 W/m2
17:49 81.7 °F 64 °F 29.8 in West 9.4 mph 10 mph 55.2% 0 in 206 W/m2
17:54 81.5 °F 63.7 °F 29.8 in West 7.9 mph 12 mph 55% 0 in 188 W/m2
17:59 81.3 °F 63.5 °F 29.8 in WSW 8.3 mph 9 mph 55% 0 in 178 W/m2
18:04 81.1 °F 63.5 °F 29.8 in WSW 8.6 mph 10 mph 55% 0 in 178 W/m2
18:09 81 °F 63.3 °F 29.8 in WSW 7.4 mph 10 mph 55% 0 in 167 W/m2
18:14 80.8 °F 63.5 °F 29.8 in WSW 7.1 mph 9 mph 55.6% 0 in 155 W/m2
18:19 80.8 °F 63.7 °F 29.8 in WSW 6 mph 8 mph 56.3% 0 in 148 W/m2
18:24 80.8 °F 64 °F 29.8 in WSW 7.5 mph 8 mph 57% 0 in 135 W/m2
18:29 80.8 °F 64.6 °F 29.8 in WSW 5.6 mph 9 mph 58% 0 in 134 W/m2
18:34 80.6 °F 64.9 °F 29.8 in WSW 6.3 mph 7 mph 59% 0 in 139 W/m2
18:39 80.6 °F 64.8 °F 29.7 in SW 5.7 mph 7 mph 58.6% 0 in 141 W/m2
18:44 80.6 °F 64.6 °F 29.7 in WSW 6.3 mph 8 mph 58.2% 0 in 141 W/m2
18:49 80.4 °F 64.4 °F 29.7 in WSW 6.4 mph 7 mph 58% 0 in 153 W/m2
18:53 80.4 °F 64.4 °F 29.7 in WSW 8.1 mph 8 mph 58% 0 in 153 W/m2
18:59 80.4 °F 64.4 °F 29.7 in WSW 8 mph 9 mph 58.2% 0 in 167 W/m2
19:04 80.2 °F 64 °F 29.7 in WSW 8.9 mph 10 mph 57.6% 0 in 174 W/m2
19:09 80.2 °F 64.2 °F 29.7 in WSW 6.2 mph 10 mph 58.2% 0 in 174 W/m2
19:14 80.2 °F 64.9 °F 29.7 in SW 6.2 mph 7 mph 59.7% 0 in 135 W/m2
19:19 80.2 °F 64.8 °F 29.7 in SW 6.8 mph 8 mph 59.3% 0 in 120 W/m2
19:23 80.1 °F 64.8 °F 29.7 in SW 6.2 mph 8 mph 59.4% 0 in 107 W/m2
19:29 80.1 °F 64.9 °F 29.7 in WSW 5.4 mph 7 mph 60% 0 in 83 W/m2
19:34 79.9 °F 64.8 °F 29.7 in WSW 5.1 mph 6 mph 60.2% 0 in 62 W/m2
19:39 79.7 °F 65.1 °F 29.7 in SW 5.4 mph 6 mph 61% 0 in 47 W/m2
19:44 79.5 °F 64.9 °F 29.7 in SW 4.3 mph 6 mph 61% 0 in 42 W/m2
19:49 79.3 °F 65.1 °F 29.8 in SW 3.9 mph 6 mph 62% 0 in 37 W/m2
19:54 79.2 °F 65.1 °F 29.8 in SW 4.6 mph 5 mph 62.2% 0 in 53 W/m2
19:59 79 °F 65.1 °F 29.7 in SW 4 mph 6 mph 62.8% 0 in 60 W/m2
20:04 78.8 °F 65.1 °F 29.7 in SW 4.1 mph 5 mph 63% 0 in 54 W/m2
20:09 78.6 °F 64.9 °F 29.7 in SW 4.7 mph 5 mph 63% 0 in 40 W/m2
20:14 78.4 °F 65.1 °F 29.7 in SW 3.4 mph 6 mph 63.8% 0 in 25 W/m2
20:19 78.3 °F 65.1 °F 29.7 in SW 5.5 mph 5 mph 64% 0 in 16 W/m2
20:24 78.1 °F 64.9 °F 29.7 in SW 5.3 mph 7 mph 64% 0 in 11 W/m2
20:29 77.9 °F 64.8 °F 29.7 in WSW 5.4 mph 7 mph 64% 0 in 7 W/m2
20:34 77.5 °F 64.8 °F 29.8 in SW 5.2 mph 6 mph 64.9% 0 in 5 W/m2
20:39 77.4 °F 64.6 °F 29.8 in WSW 4.9 mph 6 mph 65% 0 in 0 W/m2
20:44 77.2 °F 64.4 °F 29.8 in WSW 5.8 mph 6 mph 65% 0 in 0 W/m2
20:49 77 °F 64.4 °F 29.8 in SW 6.1 mph 6 mph 65.1% 0 in 0 W/m2
20:53 76.8 °F 64.4 °F 29.8 in WSW 6.6 mph 7 mph 65.6% 0 in 0 W/m2
23:39 71.6 °F 63.7 °F 29.8 in SW 6.9 mph 4.2 mph 76% 0 in 0 W/m2
23:44 71.6 °F 63.5 °F 29.8 in WSW 5.5 mph 4.3 mph 76% 0 in 0 W/m2
23:49 71.4 °F 63.5 °F 29.8 in SW 5.6 mph 6 mph 76% 0 in 0 W/m2
23:54 71.2 °F 63.3 °F 29.8 in WSW 5.4 mph 7 mph 76.3% 0 in 0 W/m2
23:59 71.2 °F 63.5 °F 29.8 in WSW 4.7 mph 7 mph 76.8% 0 in 0 W/m2
Lodi Weather
Compliments of Weather Underground - 3.25 mb